KJDD

Wood County Airport

Mineola/Quitman, Texas, USA
METAR KJDD 222015Z AUTO 06005KT 10SM CLR 19/07 A3017 RMK AO2
Observed Flight Rules
Oct-22 @ 20:15 UTC (32 minutes ago) Visual Flight Rules
Wind Visibility Clouds
60° at 5 knots 10 miles
  • Clear skies
Temperatures Readings
Current 19°C / 66°F
Dewpoint 7°C / 45°F
Humidity 46%
Altimeter 30.17" Hg
Pressure 1022 hPa
Elevation 132
METAR KJDD 222015Z AUTO 06005KT 10SM CLR 19/07 A3017 RMK AO2
Observed Flight Rules
Oct-22 @ 20:15 UTC
(32 minutes ago)
VFR
Wind Visibility
60° at 5 knots 10 miles
Clouds
  • Clear skies
Temperature Dewpoint
19°C / 66°F 7°C / 45°F
Humidity Altimeter Pressure
46% 30.17" Hg 1022 hPa